createdAt,value
2023-02-05T00:01:25.462Z,39.07
2023-02-05T00:03:55.294Z,38.13
2023-02-05T00:06:24.923Z,42.08
2023-02-05T00:08:55.047Z,40.98
2023-02-05T00:11:25.209Z,46.30
2023-02-05T00:13:55.602Z,38.90
2023-02-05T00:16:26.541Z,43.63
2023-02-05T00:18:57.426Z,40.40
2023-02-05T00:21:27.644Z,48.40
2023-02-05T00:24:00.208Z,41.28
2023-02-05T00:26:29.794Z,37.73
2023-02-05T00:29:00.116Z,47.85
2023-02-05T00:31:30.128Z,44.30
2023-02-05T00:34:00.344Z,42.85
2023-02-05T00:36:30.492Z,48.05
2023-02-05T00:39:00.375Z,50.63
2023-02-05T00:41:30.581Z,52.15
2023-02-05T00:44:00.368Z,49.73
2023-02-05T00:46:30.485Z,48.75
2023-02-05T00:49:03.367Z,48.92
2023-02-05T00:51:33.255Z,51.67
2023-02-05T00:54:03.104Z,64.70
2023-02-05T00:56:33.353Z,69.58
2023-02-05T00:59:03.612Z,63.52
2023-02-05T01:01:33.631Z,67.20
2023-02-05T01:04:05.315Z,79.45
2023-02-05T01:06:35.144Z,90.27
2023-02-05T01:09:05.113Z,74.57
2023-02-05T01:11:35.060Z,78.50
2023-02-05T01:14:05.197Z,81.63
2023-02-05T01:16:34.949Z,77.77
2023-02-05T01:19:04.751Z,72.77
2023-02-05T01:21:36.189Z,79.30
2023-02-05T01:24:06.404Z,87.80
2023-02-05T01:26:36.199Z,80.80
2023-02-05T01:29:05.784Z,81.95
2023-02-05T01:31:35.817Z,84.93
2023-02-05T01:34:05.620Z,82.03
2023-02-05T01:36:35.404Z,87.40
2023-02-05T01:39:05.759Z,82.97
2023-02-05T01:41:38.297Z,78.57
2023-02-05T01:44:10.261Z,75.17
2023-02-05T01:46:45.101Z,76.70
2023-02-05T01:49:23.564Z,78.10
2023-02-05T01:51:54.513Z,80.87
2023-02-05T01:54:27.287Z,84.27
2023-02-05T01:57:06.156Z,80.73
2023-02-05T01:59:39.201Z,83.53
2023-02-05T02:02:10.415Z,76.17
2023-02-05T02:04:52.093Z,78.23
2023-02-05T02:07:24.800Z,76.40
2023-02-05T02:09:56.016Z,76.33
2023-02-05T02:12:28.778Z,73.75
2023-02-05T02:15:04.810Z,70.30
2023-02-05T02:17:38.951Z,83.17
2023-02-05T02:20:11.392Z,72.17
2023-02-05T02:23:00.464Z,78.40
2023-02-05T02:25:56.674Z,74.03
2023-02-05T02:28:34.699Z,71.43
2023-02-05T02:31:13.556Z,72.47
2023-02-05T02:33:53.177Z,71.05
2023-02-05T02:36:31.771Z,70.12
2023-02-05T02:39:21.077Z,68.93
2023-02-05T02:41:56.614Z,65.70
2023-02-05T02:44:31.087Z,72.17
2023-02-05T02:47:03.811Z,63.80
2023-02-05T02:49:42.432Z,60.30
2023-02-05T02:52:17.323Z,67.15
2023-02-05T02:54:49.888Z,62.97
2023-02-05T02:57:22.189Z,65.07
2023-02-05T02:59:55.188Z,54.93
2023-02-05T03:02:26.960Z,63.05
2023-02-05T03:04:59.817Z,54.27
2023-02-05T03:07:36.012Z,55.63
2023-02-05T03:10:12.887Z,53.15
2023-02-05T03:12:42.774Z,47.40
2023-02-05T03:15:12.779Z,55.05
2023-02-05T03:17:43.674Z,50.27
2023-02-05T03:20:25.815Z,48.60
2023-02-05T03:22:56.878Z,45.38
2023-02-05T03:25:29.344Z,50.25
2023-02-05T03:28:00.321Z,47.78
2023-02-05T03:30:40.893Z,49.97
2023-02-05T03:33:48.315Z,48.90
2023-02-05T03:36:32.174Z,47.00
2023-02-05T03:39:06.242Z,51.30
2023-02-05T03:41:57.631Z,48.37
2023-02-05T03:44:57.254Z,46.00
2023-02-05T03:47:54.629Z,51.13
2023-02-05T03:50:43.024Z,48.30
2023-02-05T03:53:35.502Z,49.35
2023-02-05T03:56:16.803Z,52.00
2023-02-05T03:58:50.250Z,52.70
2023-02-05T04:01:21.941Z,52.57
2023-02-05T04:03:53.379Z,48.13
2023-02-05T04:06:23.169Z,49.33
2023-02-05T04:08:53.496Z,50.47
2023-02-05T04:11:24.652Z,47.20
2023-02-05T04:13:54.985Z,55.43
2023-02-05T04:16:24.946Z,58.73
2023-02-05T04:18:55.821Z,53.02
2023-02-05T04:21:26.721Z,53.67
2023-02-05T04:23:57.016Z,53.23
2023-02-05T04:26:27.268Z,57.13
2023-02-05T04:28:58.815Z,52.40
2023-02-05T04:31:29.195Z,51.97
2023-02-05T04:33:59.658Z,55.25
2023-02-05T04:36:29.495Z,53.53
2023-02-05T04:38:59.556Z,51.33
2023-02-05T04:41:29.385Z,47.43
2023-02-05T04:43:59.497Z,43.78
2023-02-05T04:46:29.027Z,46.90
2023-02-05T04:49:02.185Z,44.55
2023-02-05T04:51:32.018Z,48.23
2023-02-05T04:54:02.333Z,41.42
2023-02-05T04:56:31.913Z,43.47
2023-02-05T04:59:01.968Z,34.73
2023-02-05T05:01:31.878Z,39.43
2023-02-05T05:04:01.699Z,36.17
2023-02-05T05:06:31.794Z,30.57
2023-02-05T05:09:01.337Z,34.60
2023-02-05T05:11:31.335Z,35.87
2023-02-05T05:14:01.110Z,31.53
2023-02-05T05:16:31.206Z,30.95
2023-02-05T05:19:01.416Z,29.20
2023-02-05T05:21:31.243Z,26.63
2023-02-05T05:24:01.327Z,23.12
2023-02-05T05:26:30.909Z,25.75
2023-02-05T05:29:00.929Z,25.17
2023-02-05T05:31:30.814Z,24.50
2023-02-05T05:34:00.643Z,27.90
2023-02-05T05:36:30.424Z,25.07
2023-02-05T05:39:01.671Z,26.05
2023-02-05T05:41:49.224Z,23.90
2023-02-05T05:44:19.100Z,27.77
2023-02-05T05:46:48.845Z,26.00
2023-02-05T05:49:18.630Z,28.10
2023-02-05T05:51:48.440Z,20.63
2023-02-05T05:54:18.570Z,20.95
2023-02-05T05:56:49.585Z,24.67
2023-02-05T05:59:19.511Z,24.50
2023-02-05T06:01:49.268Z,22.13
2023-02-05T06:04:19.073Z,24.47
2023-02-05T06:06:48.640Z,23.73
2023-02-05T06:09:20.423Z,24.60
2023-02-05T06:11:50.521Z,21.77
2023-02-05T06:14:20.341Z,24.60
2023-02-05T06:16:52.244Z,23.10
2023-02-05T06:19:22.863Z,19.00
2023-02-05T06:21:52.755Z,16.53
2023-02-05T06:24:22.302Z,14.20
2023-02-05T06:26:52.146Z,16.40
2023-02-05T06:29:22.113Z,16.40
2023-02-05T06:31:52.145Z,12.97
2023-02-05T06:34:22.569Z,6.55
2023-02-05T06:36:52.170Z,7.70
2023-02-05T06:39:25.060Z,8.55
2023-02-05T06:41:54.327Z,5.80
2023-02-05T06:44:24.349Z,8.30
2023-02-05T06:46:54.181Z,9.73
2023-02-05T06:49:24.296Z,14.60
2023-02-05T06:51:54.466Z,12.27
2023-02-05T06:54:25.479Z,9.45
2023-02-05T06:56:55.746Z,13.78
2023-02-05T06:59:25.969Z,10.20
2023-02-05T07:01:55.849Z,10.50
2023-02-05T07:04:26.916Z,12.05
2023-02-05T07:06:58.066Z,13.62
2023-02-05T07:09:28.187Z,10.80
2023-02-05T07:11:57.951Z,12.73
2023-02-05T07:14:28.194Z,13.98
2023-02-05T07:16:58.012Z,9.57
2023-02-05T07:19:28.279Z,8.25
2023-02-05T07:21:58.079Z,7.00
2023-02-05T07:24:27.673Z,10.80
2023-02-05T07:26:57.495Z,5.53
2023-02-05T07:29:28.425Z,15.63
2023-02-05T07:31:58.369Z,9.60
2023-02-05T07:34:28.313Z,7.67
2023-02-05T07:36:58.092Z,7.57
2023-02-05T07:39:31.207Z,9.30
2023-02-05T07:42:01.835Z,19.77
2023-02-05T07:44:33.374Z,12.03
2023-02-05T07:47:03.339Z,13.07
2023-02-05T07:49:33.409Z,14.18
2023-02-05T07:52:03.465Z,19.05
2023-02-05T07:54:32.936Z,11.20
2023-02-05T07:57:04.910Z,13.80
2023-02-05T07:59:35.111Z,5.22
2023-02-05T08:02:04.940Z,10.87
2023-02-05T08:04:34.671Z,11.97
2023-02-05T08:07:04.635Z,12.60
2023-02-05T08:09:34.417Z,12.73
2023-02-05T08:12:04.288Z,17.27
2023-02-05T08:14:34.245Z,13.72
2023-02-05T08:17:06.398Z,14.50
2023-02-05T08:19:36.468Z,12.18
2023-02-05T08:22:09.352Z,12.87
2023-02-05T08:24:39.228Z,9.90
2023-02-05T08:27:09.030Z,13.37
2023-02-05T08:29:38.766Z,13.70
2023-02-05T08:32:08.543Z,16.07
2023-02-05T08:34:38.393Z,21.65
2023-02-05T08:37:08.541Z,17.67
2023-02-05T08:39:38.766Z,15.97
2023-02-05T08:42:08.694Z,12.87
2023-02-05T08:44:39.305Z,19.98
2023-02-05T08:47:09.093Z,21.80
2023-02-05T08:49:39.059Z,16.23
2023-02-05T08:52:08.878Z,12.63
2023-02-05T08:54:42.930Z,12.83
2023-02-05T08:57:13.117Z,26.00
2023-02-05T08:59:42.983Z,20.87
2023-02-05T09:02:16.692Z,24.40
2023-02-05T09:04:46.537Z,21.60
2023-02-05T09:07:19.399Z,20.45
2023-02-05T09:09:49.267Z,27.60
2023-02-05T09:12:19.569Z,25.10
2023-02-05T09:14:49.560Z,29.60
2023-02-05T09:17:19.410Z,21.47
2023-02-05T09:19:49.357Z,30.40
2023-02-05T09:22:20.855Z,24.87
2023-02-05T09:24:50.749Z,24.00
2023-02-05T09:27:20.525Z,17.80
2023-02-05T09:29:50.635Z,24.43
2023-02-05T09:32:20.365Z,25.57
2023-02-05T09:34:50.435Z,24.70
2023-02-05T09:37:19.916Z,22.60
2023-02-05T09:40:19.452Z,24.83
2023-02-05T09:42:42.024Z,21.90
2023-02-05T09:45:17.477Z,28.77
2023-02-05T09:47:59.299Z,23.63
2023-02-05T09:50:31.356Z,25.40
2023-02-05T09:53:06.869Z,24.13
2023-02-05T09:55:40.098Z,25.60
2023-02-05T09:58:20.105Z,23.05
2023-02-05T10:01:04.711Z,29.45
2023-02-05T10:04:03.108Z,40.50
2023-02-05T10:06:50.763Z,31.85
2023-02-05T10:09:38.399Z,34.07
2023-02-05T10:15:11.539Z,41.83
2023-02-05T10:17:47.311Z,28.75
2023-02-05T10:20:27.738Z,27.20
2023-02-05T10:23:01.701Z,26.53
2023-02-05T10:26:02.613Z,23.93
2023-02-05T10:28:35.549Z,29.07
2023-02-05T10:31:11.160Z,21.07
2023-02-05T10:33:47.007Z,21.87
2023-02-05T10:36:19.846Z,14.93
2023-02-05T10:38:51.976Z,21.60
2023-02-05T10:41:27.288Z,29.70
2023-02-05T10:44:18.832Z,25.93
2023-02-05T10:46:55.236Z,21.30
2023-02-05T10:49:47.294Z,28.27
2023-02-05T10:52:17.800Z,24.30
2023-02-05T10:54:48.280Z,23.47
2023-02-05T10:57:23.613Z,36.03
2023-02-05T10:59:58.837Z,18.00
2023-02-05T11:02:31.627Z,30.73
2023-02-05T11:05:03.918Z,28.27
2023-02-05T11:07:39.559Z,24.17
2023-02-05T11:10:26.381Z,27.40
2023-02-05T11:13:04.972Z,17.80
2023-02-05T11:15:35.342Z,32.90
2023-02-05T11:18:07.301Z,23.37
2023-02-05T11:20:39.520Z,30.57
2023-02-05T11:23:23.236Z,29.43
2023-02-05T11:25:58.676Z,24.20
2023-02-05T11:28:30.788Z,32.53
2023-02-05T11:31:03.382Z,30.35
2023-02-05T11:33:33.217Z,16.73
2023-02-05T11:36:09.249Z,27.67
2023-02-05T11:38:45.302Z,27.07
2023-02-05T11:41:18.375Z,29.90
2023-02-05T11:43:53.595Z,30.70
2023-02-05T11:46:25.449Z,27.90
2023-02-05T11:49:00.160Z,26.57
2023-02-05T11:51:38.420Z,22.22
2023-02-05T11:54:20.875Z,35.64
2023-02-05T11:57:16.712Z,34.80
2023-02-05T12:00:15.260Z,20.37
2023-02-05T12:02:45.772Z,22.67
2023-02-05T12:05:18.722Z,21.17
2023-02-05T12:08:13.667Z,28.70
2023-02-05T12:11:00.008Z,35.03
2023-02-05T12:13:49.012Z,26.82
2023-02-05T12:16:41.142Z,35.60
2023-02-05T12:19:16.825Z,26.03
2023-02-05T12:21:55.179Z,28.40
2023-02-05T12:24:48.748Z,27.27
2023-02-05T12:27:37.892Z,32.53
2023-02-05T12:30:27.183Z,23.68
2023-02-05T12:33:21.232Z,23.02
2023-02-05T12:35:59.481Z,23.60
2023-02-05T12:38:47.106Z,27.50
2023-02-05T12:41:40.848Z,21.33
2023-02-05T12:44:19.406Z,23.27
2023-02-05T12:47:15.845Z,19.90
2023-02-05T12:50:04.863Z,27.20
2023-02-05T12:52:59.460Z,17.90
2023-02-05T12:55:59.174Z,23.33
2023-02-05T12:58:38.386Z,23.60
2023-02-05T13:01:11.702Z,23.70
2023-02-05T13:03:50.292Z,16.93
2023-02-05T13:06:27.545Z,24.82
2023-02-05T13:09:18.750Z,25.90
2023-02-05T13:11:51.540Z,26.43
2023-02-05T13:14:30.078Z,24.00
2023-02-05T13:17:08.294Z,14.70
2023-02-05T13:19:44.110Z,19.87
2023-02-05T13:22:42.956Z,24.65
2023-02-05T13:25:51.018Z,19.60
2023-02-05T13:28:40.805Z,20.27
2023-02-05T13:31:16.105Z,24.80
2023-02-05T13:33:46.556Z,21.33
2023-02-05T13:36:34.083Z,21.37
2023-02-05T13:39:26.483Z,22.77
2023-02-05T13:42:00.632Z,16.67
2023-02-05T13:44:55.548Z,14.93
2023-02-05T13:47:33.880Z,12.83
2023-02-05T13:50:30.873Z,19.27
2023-02-05T13:53:18.585Z,21.07
2023-02-05T13:56:24.596Z,17.00
2023-02-05T13:58:57.642Z,21.47
2023-02-05T14:01:31.904Z,22.43
2023-02-05T14:04:07.647Z,24.93
2023-02-05T14:06:43.159Z,21.67
2023-02-05T14:09:24.743Z,18.17
2023-02-05T14:12:03.835Z,14.83
2023-02-05T14:14:38.208Z,30.47
2023-02-05T14:17:35.094Z,25.47
2023-02-05T14:23:04.850Z,22.17
2023-02-05T14:25:48.085Z,17.87
2023-02-05T14:28:32.553Z,23.60
2023-02-05T14:31:05.254Z,21.70
2023-02-05T14:33:38.613Z,26.10
2023-02-05T14:36:24.260Z,24.80
2023-02-05T14:39:08.698Z,23.93
2023-02-05T14:41:43.134Z,22.43
2023-02-05T14:44:20.031Z,29.70
2023-02-05T14:47:07.425Z,19.77
2023-02-05T14:49:46.821Z,19.57
2023-02-05T14:52:42.264Z,18.57
2023-02-05T14:55:17.799Z,23.27
2023-02-05T14:57:53.264Z,20.37
2023-02-05T15:00:41.674Z,15.03
2023-02-05T15:03:22.855Z,17.73
2023-02-05T15:06:01.132Z,20.53
2023-02-05T15:08:42.271Z,15.43
2023-02-05T15:11:47.650Z,16.03
2023-02-05T15:14:24.368Z,15.90
2023-02-05T15:17:10.456Z,24.25
2023-02-05T15:19:46.002Z,18.52
2023-02-05T15:22:37.857Z,18.12
2023-02-05T15:25:32.996Z,19.37
2023-02-05T15:31:25.641Z,21.37
2023-02-05T15:34:01.103Z,22.27
2023-02-05T15:36:42.705Z,17.33
2023-02-05T15:39:19.851Z,21.63
2023-02-05T15:41:50.358Z,19.27
2023-02-05T15:44:25.813Z,19.33
2023-02-05T15:46:56.897Z,29.10
2023-02-05T15:49:32.625Z,25.67
2023-02-05T15:52:02.539Z,17.03
2023-02-05T15:54:35.441Z,21.62
2023-02-05T15:57:06.386Z,22.05
2023-02-05T15:59:36.607Z,25.72
2023-02-05T16:02:11.218Z,26.87
2023-02-05T16:04:41.076Z,21.87
2023-02-05T16:07:23.274Z,21.07
2023-02-05T16:09:58.866Z,17.33
2023-02-05T16:12:30.452Z,20.17
2023-02-05T16:15:02.630Z,17.15
2023-02-05T16:17:44.728Z,21.83
2023-02-05T16:20:23.786Z,21.87
2023-02-05T16:23:02.126Z,22.50
2023-02-05T16:25:43.607Z,23.90
2023-02-05T16:28:37.205Z,27.37
2023-02-05T16:31:08.455Z,22.27
2023-02-05T16:33:44.109Z,23.40
2023-02-05T16:36:26.054Z,29.02
2023-02-05T16:39:01.829Z,27.47
2023-02-05T16:41:37.533Z,24.90
2023-02-05T16:44:10.444Z,24.18
2023-02-05T16:46:40.677Z,25.10
2023-02-05T16:49:28.345Z,22.47
2023-02-05T16:51:58.077Z,30.53
2023-02-05T16:54:31.035Z,24.82
2023-02-05T16:57:03.847Z,27.40
2023-02-05T16:59:36.709Z,27.53
2023-02-05T17:02:09.676Z,29.72
2023-02-05T17:04:39.992Z,29.85
2023-02-05T17:07:18.370Z,27.73
2023-02-05T17:09:48.549Z,29.83
2023-02-05T17:12:25.215Z,33.00
2023-02-05T17:15:01.997Z,24.83
2023-02-05T17:17:33.197Z,27.83
2023-02-05T17:20:05.597Z,22.50
2023-02-05T17:22:35.868Z,30.85
2023-02-05T17:25:07.870Z,33.02
2023-02-05T17:27:41.069Z,32.37
2023-02-05T17:30:13.747Z,33.23
2023-02-05T17:32:44.470Z,30.93
2023-02-05T17:35:15.917Z,28.77
2023-02-05T17:37:45.734Z,38.63
2023-02-05T17:40:17.225Z,38.48
2023-02-05T17:42:48.040Z,33.23
2023-02-05T17:45:26.326Z,33.65
2023-02-05T17:47:56.369Z,26.87
2023-02-05T17:50:26.083Z,32.17
2023-02-05T17:52:55.825Z,37.83
2023-02-05T17:55:25.813Z,34.23
2023-02-05T17:57:56.097Z,38.80
2023-02-05T18:00:30.632Z,35.83
2023-02-05T18:03:00.737Z,34.45
2023-02-05T18:05:30.864Z,35.70
2023-02-05T18:08:01.172Z,37.10
2023-02-05T18:10:32.724Z,35.43
2023-02-05T18:13:03.033Z,38.43
2023-02-05T18:15:33.677Z,49.97
2023-02-05T18:18:03.688Z,38.40
2023-02-05T18:20:34.217Z,44.08
2023-02-05T18:23:04.194Z,36.23
2023-02-05T18:25:34.078Z,38.70
2023-02-05T18:28:05.098Z,37.30
2023-02-05T18:30:35.463Z,45.60
2023-02-05T18:33:07.121Z,44.45
2023-02-05T18:35:38.818Z,34.77
2023-02-05T18:38:10.008Z,37.03
2023-02-05T18:40:42.105Z,37.43
2023-02-05T18:43:13.196Z,40.70
2023-02-05T18:45:43.159Z,41.40
2023-02-05T18:48:13.083Z,51.42
2023-02-05T18:50:42.891Z,40.07
2023-02-05T18:53:12.641Z,36.43
2023-02-05T18:55:42.549Z,44.17
2023-02-05T18:58:12.147Z,30.10
2023-02-05T19:00:42.821Z,32.17
2023-02-05T19:03:12.702Z,39.20
2023-02-05T19:05:42.696Z,34.93
2023-02-05T19:08:12.310Z,34.33
2023-02-05T19:10:42.160Z,41.07
2023-02-05T19:13:12.023Z,36.30
2023-02-05T19:15:41.928Z,30.43
2023-02-05T19:18:11.616Z,29.57
2023-02-05T19:20:41.435Z,34.80
2023-02-05T19:23:11.325Z,41.73
2023-02-05T19:25:41.151Z,39.10
2023-02-05T19:28:11.080Z,42.80
2023-02-05T19:30:41.086Z,42.33
2023-02-05T19:33:10.900Z,27.40
2023-02-05T19:35:41.256Z,32.85
2023-02-05T19:38:11.598Z,39.10
2023-02-05T19:40:41.402Z,28.57
2023-02-05T19:43:11.243Z,45.03
2023-02-05T19:45:41.330Z,32.42
2023-02-05T19:48:12.588Z,34.86
2023-02-05T19:50:43.499Z,41.27
2023-02-05T19:53:13.342Z,40.33
2023-02-05T19:55:43.134Z,31.63
2023-02-05T19:58:12.917Z,34.70
2023-02-05T20:00:42.686Z,43.23
2023-02-05T20:03:12.511Z,31.40
2023-02-05T20:05:43.923Z,29.93
2023-02-05T20:08:13.678Z,39.55
2023-02-05T20:10:43.436Z,36.27
2023-02-05T20:13:13.887Z,29.53
2023-02-05T20:15:43.677Z,31.60
2023-02-05T20:18:13.178Z,42.53
2023-02-05T20:20:43.314Z,38.20
2023-02-05T20:23:13.166Z,34.27
2023-02-05T20:25:42.966Z,37.83
2023-02-05T20:28:12.916Z,35.38
2023-02-05T20:31:00.739Z,31.67
2023-02-05T20:33:30.656Z,39.77
2023-02-05T20:36:05.854Z,51.10
2023-02-05T20:38:36.312Z,41.35
2023-02-05T20:41:17.090Z,40.03
2023-02-05T20:43:46.976Z,44.47
2023-02-05T20:46:17.698Z,35.83
2023-02-05T20:48:48.467Z,38.23
2023-02-05T20:51:22.180Z,37.53
2023-02-05T20:53:52.583Z,37.70
2023-02-05T20:56:22.834Z,35.50
2023-02-05T20:58:53.237Z,37.80
2023-02-05T21:01:28.722Z,35.73
2023-02-05T21:04:00.849Z,46.75
2023-02-05T21:06:36.338Z,35.13
2023-02-05T21:09:07.692Z,32.07
2023-02-05T21:11:38.635Z,41.67
2023-02-05T21:14:10.305Z,41.83
2023-02-05T21:16:40.783Z,56.13
2023-02-05T21:19:12.234Z,54.07
2023-02-05T21:21:42.362Z,56.63
2023-02-05T21:24:17.259Z,56.08
2023-02-05T21:26:49.283Z,45.77
2023-02-05T21:29:21.481Z,39.37
2023-02-05T21:31:54.859Z,45.20
2023-02-05T21:34:27.685Z,41.07
2023-02-05T21:36:57.773Z,34.65
2023-02-05T21:39:27.619Z,49.57
2023-02-05T21:41:57.709Z,34.20
2023-02-05T21:44:27.465Z,37.03
2023-02-05T21:46:57.524Z,39.08
2023-02-05T21:49:27.673Z,34.40
2023-02-05T21:51:57.390Z,45.83
2023-02-05T21:54:26.865Z,44.73
2023-02-05T21:56:56.659Z,41.60
2023-02-05T21:59:26.153Z,44.65
2023-02-05T22:01:55.941Z,41.47
2023-02-05T22:04:25.540Z,48.20
2023-02-05T22:06:55.415Z,41.80
2023-02-05T22:09:25.186Z,47.63
2023-02-05T22:11:56.411Z,37.90
2023-02-05T22:14:25.956Z,41.53
2023-02-05T22:16:56.064Z,41.10
2023-02-05T22:19:26.464Z,36.50
2023-02-05T22:21:56.289Z,34.67
2023-02-05T22:24:25.827Z,38.15
2023-02-05T22:26:55.686Z,31.73
2023-02-05T22:29:25.284Z,44.10
2023-02-05T22:31:55.392Z,32.80
2023-02-05T22:34:25.329Z,42.38
2023-02-05T22:36:55.100Z,35.63
2023-02-05T22:39:24.856Z,31.43
2023-02-05T22:41:54.992Z,35.33
2023-02-05T22:44:24.587Z,36.53
2023-02-05T22:46:54.620Z,42.10
2023-02-05T22:49:24.118Z,41.15
2023-02-05T22:51:54.074Z,47.70
2023-02-05T22:54:24.060Z,41.75
2023-02-05T22:56:54.254Z,30.45
2023-02-05T22:59:24.147Z,31.77
2023-02-05T23:01:53.894Z,43.57
2023-02-05T23:04:23.388Z,37.85
2023-02-05T23:06:53.142Z,42.77
2023-02-05T23:09:23.073Z,41.47
2023-02-05T23:11:55.441Z,51.87
2023-02-05T23:14:24.946Z,40.10
2023-02-05T23:16:56.565Z,32.87
2023-02-05T23:19:27.103Z,37.67
2023-02-05T23:21:56.863Z,36.17
2023-02-05T23:24:26.641Z,38.85
2023-02-05T23:26:56.722Z,41.00
2023-02-05T23:29:27.096Z,46.25
2023-02-05T23:31:56.587Z,37.75
2023-02-05T23:34:26.436Z,38.65
2023-02-05T23:36:56.625Z,40.60
2023-02-05T23:39:26.192Z,33.42
2023-02-05T23:41:55.946Z,46.37
2023-02-05T23:44:25.855Z,38.30
2023-02-05T23:46:55.674Z,47.57
2023-02-05T23:49:25.906Z,28.80
2023-02-05T23:51:56.244Z,38.45
2023-02-05T23:54:25.878Z,39.83
2023-02-05T23:56:56.677Z,37.80
2023-02-05T23:59:26.423Z,40.13
